sensor_id;sensor_type;location;lat;lon;timestamp;pressure;altitude;pressure_sealevel;temperature
73673;BMP280;61972;19.480;-99.240;2023-07-13T00:01:51;77761.22;;;32.81
73673;BMP280;61972;19.480;-99.240;2023-07-13T00:04:19;77765.50;;;32.83
73673;BMP280;61972;19.480;-99.240;2023-07-13T00:06:46;77762.31;;;32.82
73673;BMP280;61972;19.480;-99.240;2023-07-13T00:09:14;77759.75;;;32.85
73673;BMP280;61972;19.480;-99.240;2023-07-13T00:11:41;77768.81;;;32.86
73673;BMP280;61972;19.480;-99.240;2023-07-13T00:14:08;77771.56;;;32.88
73673;BMP280;61972;19.480;-99.240;2023-07-13T00:16:36;77765.81;;;32.91
73673;BMP280;61972;19.480;-99.240;2023-07-13T00:19:02;77762.59;;;32.90
73673;BMP280;61972;19.480;-99.240;2023-07-13T00:21:29;77766.81;;;32.89
73673;BMP280;61972;19.480;-99.240;2023-07-13T00:23:55;77774.19;;;32.88
73673;BMP280;61972;19.480;-99.240;2023-07-13T00:26:21;77781.69;;;32.91
73673;BMP280;61972;19.480;-99.240;2023-07-13T00:28:47;77781.13;;;32.90
73673;BMP280;61972;19.480;-99.240;2023-07-13T00:31:13;77786.44;;;32.90
73673;BMP280;61972;19.480;-99.240;2023-07-13T00:33:43;77782.25;;;32.91
73673;BMP280;61972;19.480;-99.240;2023-07-13T00:36:10;77783.34;;;32.92
73673;BMP280;61972;19.480;-99.240;2023-07-13T00:38:36;77789.75;;;32.93
73673;BMP280;61972;19.480;-99.240;2023-07-13T00:41:04;77801.44;;;32.94
73673;BMP280;61972;19.480;-99.240;2023-07-13T00:43:31;77799.38;;;32.95
73673;BMP280;61972;19.480;-99.240;2023-07-13T00:46:17;77801.44;;;32.94
73673;BMP280;61972;19.480;-99.240;2023-07-13T00:48:45;77808.28;;;32.93
73673;BMP280;61972;19.480;-99.240;2023-07-13T00:51:14;77809.28;;;32.92
73673;BMP280;61972;19.480;-99.240;2023-07-13T00:53:42;77815.53;;;32.90
73673;BMP280;61972;19.480;-99.240;2023-07-13T00:56:08;77811.81;;;32.89
73673;BMP280;61972;19.480;-99.240;2023-07-13T00:58:35;77813.81;;;32.86
73673;BMP280;61972;19.480;-99.240;2023-07-13T01:01:01;77817.44;;;32.84
73673;BMP280;61972;19.480;-99.240;2023-07-13T01:03:27;77818.88;;;32.81
73673;BMP280;61972;19.480;-99.240;2023-07-13T01:05:54;77821.94;;;32.79
73673;BMP280;61972;19.480;-99.240;2023-07-13T01:08:21;77816.66;;;32.79
73673;BMP280;61972;19.480;-99.240;2023-07-13T01:10:55;77825.03;;;32.77
73673;BMP280;61972;19.480;-99.240;2023-07-13T01:13:22;77822.41;;;32.77
73673;BMP280;61972;19.480;-99.240;2023-07-13T01:15:50;77840.91;;;32.77
73673;BMP280;61972;19.480;-99.240;2023-07-13T01:18:22;77845.66;;;32.76
73673;BMP280;61972;19.480;-99.240;2023-07-13T01:21:01;77855.72;;;32.76
73673;BMP280;61972;19.480;-99.240;2023-07-13T01:23:29;77861.03;;;32.76
73673;BMP280;61972;19.480;-99.240;2023-07-13T01:25:56;77866.31;;;32.76
73673;BMP280;61972;19.480;-99.240;2023-07-13T01:28:24;77862.56;;;32.75
73673;BMP280;61972;19.480;-99.240;2023-07-13T01:30:53;77868.31;;;32.73
73673;BMP280;61972;19.480;-99.240;2023-07-13T01:33:20;77872.47;;;32.72
73673;BMP280;61972;19.480;-99.240;2023-07-13T01:35:46;77871.38;;;32.71
73673;BMP280;61972;19.480;-99.240;2023-07-13T01:38:15;77866.06;;;32.71
73673;BMP280;61972;19.480;-99.240;2023-07-13T01:40:42;77864.97;;;32.70
73673;BMP280;61972;19.480;-99.240;2023-07-13T01:43:09;77867.63;;;32.70
73673;BMP280;61972;19.480;-99.240;2023-07-13T01:45:35;77871.81;;;32.68
73673;BMP280;61972;19.480;-99.240;2023-07-13T01:48:01;77873.34;;;32.67
73673;BMP280;61972;19.480;-99.240;2023-07-13T01:50:27;77868.06;;;32.67
73673;BMP280;61972;19.480;-99.240;2023-07-13T01:52:53;77864.88;;;32.67
73673;BMP280;61972;19.480;-99.240;2023-07-13T01:55:20;77869.59;;;32.66
73673;BMP280;61972;19.480;-99.240;2023-07-13T01:57:46;77872.25;;;32.66
73673;BMP280;61972;19.480;-99.240;2023-07-13T02:00:13;77876.44;;;32.65
73673;BMP280;61972;19.480;-99.240;2023-07-13T02:02:39;77864.19;;;32.64
73673;BMP280;61972;19.480;-99.240;2023-07-13T02:05:06;77864.75;;;32.64
73673;BMP280;61972;19.480;-99.240;2023-07-13T02:07:32;77868.94;;;32.63
73673;BMP280;61972;19.480;-99.240;2023-07-13T02:09:58;77867.84;;;32.62
73673;BMP280;61972;19.480;-99.240;2023-07-13T02:12:25;77876.75;;;32.61
73673;BMP280;61972;19.480;-99.240;2023-07-13T02:14:51;77880.41;;;32.59
73673;BMP280;61972;19.480;-99.240;2023-07-13T02:17:17;77883.47;;;32.57
73673;BMP280;61972;19.480;-99.240;2023-07-13T02:19:43;77885.47;;;32.54
73673;BMP280;61972;19.480;-99.240;2023-07-13T02:22:09;77888.53;;;32.52
73673;BMP280;61972;19.480;-99.240;2023-07-13T02:24:35;77898.03;;;32.51
73673;BMP280;61972;19.480;-99.240;2023-07-13T02:27:01;77898.03;;;32.51
73673;BMP280;61972;19.480;-99.240;2023-07-13T02:29:27;77904.41;;;32.52
73673;BMP280;61972;19.480;-99.240;2023-07-13T02:31:53;77905.53;;;32.53
73673;BMP280;61972;19.480;-99.240;2023-07-13T02:34:19;77905.09;;;32.55
73673;BMP280;61972;19.480;-99.240;2023-07-13T02:36:45;77914.13;;;32.56
73673;BMP280;61972;19.480;-99.240;2023-07-13T02:39:13;77914.13;;;32.56
73673;BMP280;61972;19.480;-99.240;2023-07-13T02:41:39;77920.53;;;32.57
73673;BMP280;61972;19.480;-99.240;2023-07-13T02:44:05;77916.34;;;32.58
73673;BMP280;61972;19.480;-99.240;2023-07-13T02:46:34;77921.66;;;32.58
73673;BMP280;61972;19.480;-99.240;2023-07-13T02:49:01;77919.53;;;32.59
73673;BMP280;61972;19.480;-99.240;2023-07-13T02:51:27;77925.81;;;32.57
73673;BMP280;61972;19.480;-99.240;2023-07-13T02:53:54;77922.63;;;32.57
73673;BMP280;61972;19.480;-99.240;2023-07-13T02:56:23;77926.94;;;32.58
73673;BMP280;61972;19.480;-99.240;2023-07-13T02:58:50;77938.63;;;32.59
73673;BMP280;61972;19.480;-99.240;2023-07-13T03:01:16;77939.72;;;32.60
73673;BMP280;61972;19.480;-99.240;2023-07-13T03:03:48;77944.44;;;32.60
73673;BMP280;61972;19.480;-99.240;2023-07-13T03:06:15;77950.31;;;32.60
73673;BMP280;61972;19.480;-99.240;2023-07-13T03:08:43;77943.94;;;32.59
73673;BMP280;61972;19.480;-99.240;2023-07-13T03:11:13;77944.34;;;32.57
73673;BMP280;61972;19.480;-99.240;2023-07-13T03:13:40;77947.00;;;32.57
73673;BMP280;61972;19.480;-99.240;2023-07-13T03:16:08;77953.41;;;32.58
73673;BMP280;61972;19.480;-99.240;2023-07-13T03:18:35;77953.41;;;32.58
73673;BMP280;61972;19.480;-99.240;2023-07-13T03:21:01;77953.41;;;32.58
73673;BMP280;61972;19.480;-99.240;2023-07-13T03:23:27;77945.91;;;32.56
73673;BMP280;61972;19.480;-99.240;2023-07-13T03:26:08;77953.16;;;32.53
73673;BMP280;61972;19.480;-99.240;2023-07-13T03:28:35;77956.69;;;32.49
73673;BMP280;61972;19.480;-99.240;2023-07-13T03:31:05;77962.94;;;32.47
73673;BMP280;61972;19.480;-99.240;2023-07-13T03:33:32;77972.41;;;32.46
73673;BMP280;61972;19.480;-99.240;2023-07-13T03:35:58;77977.19;;;32.46
73673;BMP280;61972;19.480;-99.240;2023-07-13T03:38:25;77976.63;;;32.45
73673;BMP280;61972;19.480;-99.240;2023-07-13T03:40:52;77977.19;;;32.46
73673;BMP280;61972;19.480;-99.240;2023-07-13T03:43:18;77976.06;;;32.45
73673;BMP280;61972;19.480;-99.240;2023-07-13T03:45:47;77972.31;;;32.44
73673;BMP280;61972;19.480;-99.240;2023-07-13T03:48:14;77983.31;;;32.42
73673;BMP280;61972;19.480;-99.240;2023-07-13T03:50:41;77986.41;;;32.40
73673;BMP280;61972;19.480;-99.240;2023-07-13T03:53:07;77984.19;;;32.38
73673;BMP280;61972;19.480;-99.240;2023-07-13T03:55:33;77983.09;;;32.37
73673;BMP280;61972;19.480;-99.240;2023-07-13T03:58:22;77986.19;;;32.35
73673;BMP280;61972;19.480;-99.240;2023-07-13T04:00:46;77978.25;;;32.35
73673;BMP280;61972;19.480;-99.240;2023-07-13T04:03:13;77976.69;;;32.36
73673;BMP280;61972;19.480;-99.240;2023-07-13T04:05:39;77984.19;;;32.38
73673;BMP280;61972;19.480;-99.240;2023-07-13T04:08:06;77979.44;;;32.38
73673;BMP280;61972;19.480;-99.240;2023-07-13T04:10:32;77978.47;;;32.40
73673;BMP280;61972;19.480;-99.240;2023-07-13T04:12:58;77976.41;;;32.40
73673;BMP280;61972;19.480;-99.240;2023-07-13T04:15:24;77980.00;;;32.39
73673;BMP280;61972;19.480;-99.240;2023-07-13T04:17:50;77984.19;;;32.38
73673;BMP280;61972;19.480;-99.240;2023-07-13T04:20:17;77976.25;;;32.38
73673;BMP280;61972;19.480;-99.240;2023-07-13T04:22:45;77973.63;;;32.38
73673;BMP280;61972;19.480;-99.240;2023-07-13T04:25:11;77978.47;;;32.40
73673;BMP280;61972;19.480;-99.240;2023-07-13T04:27:37;77977.50;;;32.41
73673;BMP280;61972;19.480;-99.240;2023-07-13T04:30:06;77971.63;;;32.41
73673;BMP280;61972;19.480;-99.240;2023-07-13T04:32:32;77977.50;;;32.41
73673;BMP280;61972;19.480;-99.240;2023-07-13T04:34:58;77975.28;;;32.39
73673;BMP280;61972;19.480;-99.240;2023-07-13T04:37:28;77982.22;;;32.41
73673;BMP280;61972;19.480;-99.240;2023-07-13T04:39:55;77982.22;;;32.41
73673;BMP280;61972;19.480;-99.240;2023-07-13T04:42:21;77980.13;;;32.41
73673;BMP280;61972;19.480;-99.240;2023-07-13T04:44:51;77976.91;;;32.41
73673;BMP280;61972;19.480;-99.240;2023-07-13T04:47:21;77978.03;;;32.42
73673;BMP280;61972;19.480;-99.240;2023-07-13T04:49:47;77976.50;;;32.43
73673;BMP280;61972;19.480;-99.240;2023-07-13T04:52:13;77974.38;;;32.43
73673;BMP280;61972;19.480;-99.240;2023-07-13T04:54:39;77977.59;;;32.44
73673;BMP280;61972;19.480;-99.240;2023-07-13T04:57:06;77980.25;;;32.44
73673;BMP280;61972;19.480;-99.240;2023-07-13T04:59:33;77979.16;;;32.43
73673;BMP280;61972;19.480;-99.240;2023-07-13T05:01:59;77984.44;;;32.43
73673;BMP280;61972;19.480;-99.240;2023-07-13T05:04:25;77990.81;;;32.44
73673;BMP280;61972;19.480;-99.240;2023-07-13T05:06:51;77997.66;;;32.43
73673;BMP280;61972;19.480;-99.240;2023-07-13T05:09:17;77996.66;;;32.44
73673;BMP280;61972;19.480;-99.240;2023-07-13T05:11:44;77989.31;;;32.45
73673;BMP280;61972;19.480;-99.240;2023-07-13T05:14:10;77991.94;;;32.45
73673;BMP280;61972;19.480;-99.240;2023-07-13T05:16:36;77993.06;;;32.46
73673;BMP280;61972;19.480;-99.240;2023-07-13T05:19:02;77994.16;;;32.47
73673;BMP280;61972;19.480;-99.240;2023-07-13T05:21:28;77995.03;;;32.43
73673;BMP280;61972;19.480;-99.240;2023-07-13T05:23:55;77991.16;;;32.39
73673;BMP280;61972;19.480;-99.240;2023-07-13T05:26:21;77990.34;;;32.34
73673;BMP280;61972;19.480;-99.240;2023-07-13T05:28:47;77993.75;;;32.27
73673;BMP280;61972;19.480;-99.240;2023-07-13T05:31:14;77989.19;;;32.20
73673;BMP280;61972;19.480;-99.240;2023-07-13T05:33:40;77992.56;;;32.14
73673;BMP280;61972;19.480;-99.240;2023-07-13T05:36:06;77989.13;;;32.08
73673;BMP280;61972;19.480;-99.240;2023-07-13T05:38:33;77990.56;;;32.04
73673;BMP280;61972;19.480;-99.240;2023-07-13T05:40:59;77992.41;;;31.99
73673;BMP280;61972;19.480;-99.240;2023-07-13T05:43:25;77983.22;;;31.95
73673;BMP280;61972;19.480;-99.240;2023-07-13T05:45:56;77981.03;;;31.93
73673;BMP280;61972;19.480;-99.240;2023-07-13T05:48:22;77993.69;;;31.93
73673;BMP280;61972;19.480;-99.240;2023-07-13T05:50:48;77983.13;;;31.93
73673;BMP280;61972;19.480;-99.240;2023-07-13T05:53:15;77976.72;;;31.92
73673;BMP280;61972;19.480;-99.240;2023-07-13T05:55:45;77986.31;;;31.93
73673;BMP280;61972;19.480;-99.240;2023-07-13T05:58:13;77974.75;;;31.95
73673;BMP280;61972;19.480;-99.240;2023-07-13T06:00:40;77981.16;;;31.96
73673;BMP280;61972;19.480;-99.240;2023-07-13T06:03:06;77981.69;;;31.96
73673;BMP280;61972;19.480;-99.240;2023-07-13T06:05:33;77976.97;;;31.97
73673;BMP280;61972;19.480;-99.240;2023-07-13T06:08:00;77971.69;;;31.97
73673;BMP280;61972;19.480;-99.240;2023-07-13T06:10:26;77969.03;;;31.97
73673;BMP280;61972;19.480;-99.240;2023-07-13T06:12:52;77971.25;;;31.99
73673;BMP280;61972;19.480;-99.240;2023-07-13T06:15:18;77969.69;;;32.00
73673;BMP280;61972;19.480;-99.240;2023-07-13T06:17:45;77963.44;;;32.01
73673;BMP280;61972;19.480;-99.240;2023-07-13T06:20:11;77971.50;;;32.04
73673;BMP280;61972;19.480;-99.240;2023-07-13T06:22:37;77971.06;;;32.06
73673;BMP280;61972;19.480;-99.240;2023-07-13T06:25:04;77969.09;;;32.09
73673;BMP280;61972;19.480;-99.240;2023-07-13T06:27:30;77964.47;;;32.12
73673;BMP280;61972;19.480;-99.240;2023-07-13T06:29:56;77963.94;;;32.12
73673;BMP280;61972;19.480;-99.240;2023-07-13T06:32:22;77966.00;;;32.11
73673;BMP280;61972;19.480;-99.240;2023-07-13T06:34:48;77968.09;;;32.10
73673;BMP280;61972;19.480;-99.240;2023-07-13T06:37:14;77964.94;;;32.10
73673;BMP280;61972;19.480;-99.240;2023-07-13T06:39:40;77960.16;;;32.10
73673;BMP280;61972;19.480;-99.240;2023-07-13T06:42:07;77955.41;;;32.11
73673;BMP280;61972;19.480;-99.240;2023-07-13T06:44:33;77948.16;;;32.14
73673;BMP280;61972;19.480;-99.240;2023-07-13T06:46:59;77948.41;;;32.19
73673;BMP280;61972;19.480;-99.240;2023-07-13T06:49:25;77952.41;;;32.25
73673;BMP280;61972;19.480;-99.240;2023-07-13T06:51:51;77952.22;;;32.33
73673;BMP280;61972;19.480;-99.240;2023-07-13T06:54:17;77947.81;;;32.41
73673;BMP280;61972;19.480;-99.240;2023-07-13T06:56:43;77952.38;;;32.47
73673;BMP280;61972;19.480;-99.240;2023-07-13T06:59:09;77950.94;;;32.51
73673;BMP280;61972;19.480;-99.240;2023-07-13T07:01:35;77942.13;;;32.55
73673;BMP280;61972;19.480;-99.240;2023-07-13T07:04:03;77937.53;;;32.58
73673;BMP280;61972;19.480;-99.240;2023-07-13T07:06:29;77938.31;;;32.64
73673;BMP280;61972;19.480;-99.240;2023-07-13T07:08:56;77936.88;;;32.67
73673;BMP280;61972;19.480;-99.240;2023-07-13T07:11:24;77942.41;;;32.73
73673;BMP280;61972;19.480;-99.240;2023-07-13T07:13:51;77928.28;;;32.77
73673;BMP280;61972;19.480;-99.240;2023-07-13T07:16:19;77929.63;;;32.83
73673;BMP280;61972;19.480;-99.240;2023-07-13T07:18:46;77928.75;;;32.87
73673;BMP280;61972;19.480;-99.240;2023-07-13T07:21:13;77931.06;;;32.92
73673;BMP280;61972;19.480;-99.240;2023-07-13T07:23:39;77925.44;;;32.96
73673;BMP280;61972;19.480;-99.240;2023-07-13T07:26:06;77926.13;;;32.99
73673;BMP280;61972;19.480;-99.240;2023-07-13T07:28:34;77919.25;;;33.00
73673;BMP280;61972;19.480;-99.240;2023-07-13T07:31:00;77913.53;;;33.02
73673;BMP280;61972;19.480;-99.240;2023-07-13T07:33:26;77911.97;;;33.03
73673;BMP280;61972;19.480;-99.240;2023-07-13T07:35:52;77906.69;;;33.03
73673;BMP280;61972;19.480;-99.240;2023-07-13T07:38:18;77907.78;;;33.04
73673;BMP280;61972;19.480;-99.240;2023-07-13T07:40:44;77915.28;;;33.06
73673;BMP280;61972;19.480;-99.240;2023-07-13T07:43:12;77908.00;;;33.10
73673;BMP280;61972;19.480;-99.240;2023-07-13T07:45:39;77899.63;;;33.12
73673;BMP280;61972;19.480;-99.240;2023-07-13T07:48:06;77897.09;;;33.14
73673;BMP280;61972;19.480;-99.240;2023-07-13T07:50:33;77882.84;;;33.16
73673;BMP280;61972;19.480;-99.240;2023-07-13T07:52:59;77885.63;;;33.18
73673;BMP280;61972;19.480;-99.240;2023-07-13T07:55:29;77887.25;;;33.20
73673;BMP280;61972;19.480;-99.240;2023-07-13T07:57:58;77877.78;;;33.21
73673;BMP280;61972;19.480;-99.240;2023-07-13T08:00:24;77878.34;;;33.21
73673;BMP280;61972;19.480;-99.240;2023-07-13T08:02:50;77870.50;;;33.24
73673;BMP280;61972;19.480;-99.240;2023-07-13T08:05:16;77865.72;;;33.24
73673;BMP280;61972;19.480;-99.240;2023-07-13T08:07:42;77866.28;;;33.25
73673;BMP280;61972;19.480;-99.240;2023-07-13T08:10:09;77863.19;;;33.27
73673;BMP280;61972;19.480;-99.240;2023-07-13T08:12:37;77865.41;;;33.29
73673;BMP280;61972;19.480;-99.240;2023-07-13T08:15:04;77863.84;;;33.30
73673;BMP280;61972;19.480;-99.240;2023-07-13T08:17:31;77859.22;;;33.33
73673;BMP280;61972;19.480;-99.240;2023-07-13T08:19:57;77848.59;;;33.33
73673;BMP280;61972;19.480;-99.240;2023-07-13T08:22:23;77855.59;;;33.35
73673;BMP280;61972;19.480;-99.240;2023-07-13T08:24:49;77848.06;;;33.33
73673;BMP280;61972;19.480;-99.240;2023-07-13T08:27:25;77840.13;;;33.33
73673;BMP280;61972;19.480;-99.240;2023-07-13T08:29:52;77838.00;;;33.33
73673;BMP280;61972;19.480;-99.240;2023-07-13T08:32:20;77845.50;;;33.35
73673;BMP280;61972;19.480;-99.240;2023-07-13T08:34:46;77836.56;;;33.37
73673;BMP280;61972;19.480;-99.240;2023-07-13T08:37:13;77838.22;;;33.38
73673;BMP280;61972;19.480;-99.240;2023-07-13T08:39:39;77845.72;;;33.40
73673;BMP280;61972;19.480;-99.240;2023-07-13T08:42:11;77849.03;;;33.43
73673;BMP280;61972;19.480;-99.240;2023-07-13T08:47:39;77844.84;;;33.44
73673;BMP280;61972;19.480;-99.240;2023-07-13T08:50:11;77836.78;;;33.42
73673;BMP280;61972;19.480;-99.240;2023-07-13T08:52:40;77848.38;;;33.40
73673;BMP280;61972;19.480;-99.240;2023-07-13T08:55:20;77851.47;;;33.38
73673;BMP280;61972;19.480;-99.240;2023-07-13T08:57:53;77848.84;;;33.38
73673;BMP280;61972;19.480;-99.240;2023-07-13T09:00:21;77863.19;;;33.39
73673;BMP280;61972;19.480;-99.240;2023-07-13T09:02:55;77855.25;;;33.39
73673;BMP280;61972;19.480;-99.240;2023-07-13T09:10:52;77865.63;;;33.34
73673;BMP280;61972;19.480;-99.240;2023-07-13T09:15:46;77879.75;;;32.93
73673;BMP280;61972;19.480;-99.240;2023-07-13T09:18:23;77874.25;;;32.76
73673;BMP280;61972;19.480;-99.240;2023-07-13T09:21:08;77872.59;;;32.62
73673;BMP280;61972;19.480;-99.240;2023-07-13T09:23:36;77881.50;;;32.48
73673;BMP280;61972;19.480;-99.240;2023-07-13T09:28:38;77885.50;;;32.20
73673;BMP280;61972;19.480;-99.240;2023-07-13T09:33:42;77876.25;;;31.92
73673;BMP280;61972;19.480;-99.240;2023-07-13T09:36:34;77879.72;;;31.75
73673;BMP280;61972;19.480;-99.240;2023-07-13T09:39:15;77882.31;;;31.63
73673;BMP280;61972;19.480;-99.240;2023-07-13T09:44:39;77879.97;;;31.36
73673;BMP280;61972;19.480;-99.240;2023-07-13T09:47:21;77871.97;;;31.24
73673;BMP280;61972;19.480;-99.240;2023-07-13T09:49:57;77875.66;;;31.12
73673;BMP280;61972;19.480;-99.240;2023-07-13T09:52:25;77874.03;;;31.01
73673;BMP280;61972;19.480;-99.240;2023-07-13T09:54:52;77872.00;;;30.92
73673;BMP280;61972;19.480;-99.240;2023-07-13T09:57:27;77868.41;;;30.84
73673;BMP280;61972;19.480;-99.240;2023-07-13T09:59:54;77864.84;;;30.76
73673;BMP280;61972;19.480;-99.240;2023-07-13T10:02:33;77875.00;;;30.68
73673;BMP280;61972;19.480;-99.240;2023-07-13T10:05:05;77873.09;;;30.61
73673;BMP280;61972;19.480;-99.240;2023-07-13T10:07:38;77875.88;;;30.54
73673;BMP280;61972;19.480;-99.240;2023-07-13T10:10:14;77866.59;;;30.48
73673;BMP280;61972;19.480;-99.240;2023-07-13T10:12:41;77867.88;;;30.42
73673;BMP280;61972;19.480;-99.240;2023-07-13T10:15:15;77877.47;;;30.33
73673;BMP280;61972;19.480;-99.240;2023-07-13T10:17:43;77871.25;;;30.25
73673;BMP280;61972;19.480;-99.240;2023-07-13T10:20:10;77875.13;;;30.19
73673;BMP280;61972;19.480;-99.240;2023-07-13T10:25:27;77872.81;;;30.05
73673;BMP280;61972;19.480;-99.240;2023-07-13T10:28:06;77867.69;;;29.97
73673;BMP280;61972;19.480;-99.240;2023-07-13T10:30:41;77868.50;;;29.93
73673;BMP280;61972;19.480;-99.240;2023-07-13T10:33:11;77867.09;;;29.87
73673;BMP280;61972;19.480;-99.240;2023-07-13T10:35:41;77865.34;;;29.83
73673;BMP280;61972;19.480;-99.240;2023-07-13T10:38:12;77857.16;;;29.78
73673;BMP280;61972;19.480;-99.240;2023-07-13T10:40:41;77862.81;;;29.76
73673;BMP280;61972;19.480;-99.240;2023-07-13T10:43:18;77851.34;;;29.68
73673;BMP280;61972;19.480;-99.240;2023-07-13T10:45:46;77853.28;;;29.65
73673;BMP280;61972;19.480;-99.240;2023-07-13T10:48:16;77853.00;;;29.59
73673;BMP280;61972;19.480;-99.240;2023-07-13T10:50:45;77854.38;;;29.56
73673;BMP280;61972;19.480;-99.240;2023-07-13T10:53:31;77856.19;;;29.50
73673;BMP280;61972;19.480;-99.240;2023-07-13T10:56:03;77853.81;;;29.46
73673;BMP280;61972;19.480;-99.240;2023-07-13T10:58:39;77861.03;;;29.43
73673;BMP280;61972;19.480;-99.240;2023-07-13T11:03:34;77847.44;;;29.35
73673;BMP280;61972;19.480;-99.240;2023-07-13T11:06:17;77854.66;;;29.32
73673;BMP280;61972;19.480;-99.240;2023-07-13T11:09:00;77852.44;;;29.30
73673;BMP280;61972;19.480;-99.240;2023-07-13T11:14:02;77866.28;;;29.23
73673;BMP280;61972;19.480;-99.240;2023-07-13T11:16:46;77868.78;;;29.20
73673;BMP280;61972;19.480;-99.240;2023-07-13T11:24:59;77872.34;;;29.09
73673;BMP280;61972;19.480;-99.240;2023-07-13T11:27:38;77871.25;;;29.08
73673;BMP280;61972;19.480;-99.240;2023-07-13T11:30:24;77873.19;;;29.05
73673;BMP280;61972;19.480;-99.240;2023-07-13T11:35:36;77871.78;;;28.99
73673;BMP280;61972;19.480;-99.240;2023-07-13T11:38:14;77875.25;;;28.95
73673;BMP280;61972;19.480;-99.240;2023-07-13T11:40:44;77873.56;;;28.93
73673;BMP280;61972;19.480;-99.240;2023-07-13T11:43:14;77872.31;;;28.90
73673;BMP280;61972;19.480;-99.240;2023-07-13T11:45:42;77877.97;;;28.88
73673;BMP280;61972;19.480;-99.240;2023-07-13T11:48:28;77888.91;;;28.86
73673;BMP280;61972;19.480;-99.240;2023-07-13T11:51:01;77889.88;;;28.84
73673;BMP280;61972;19.480;-99.240;2023-07-13T11:53:30;77889.72;;;28.81
73673;BMP280;61972;19.480;-99.240;2023-07-13T11:55:59;77893.88;;;28.80
73673;BMP280;61972;19.480;-99.240;2023-07-13T11:58:27;77896.91;;;28.78
73673;BMP280;61972;19.480;-99.240;2023-07-13T12:00:55;77890.94;;;28.75
73673;BMP280;61972;19.480;-99.240;2023-07-13T12:03:23;77901.31;;;28.73
73673;BMP280;61972;19.480;-99.240;2023-07-13T12:05:57;77893.28;;;28.70
73673;BMP280;61972;19.480;-99.240;2023-07-13T12:08:25;77901.59;;;28.68
73673;BMP280;61972;19.480;-99.240;2023-07-13T12:11:09;77898.81;;;28.66
73673;BMP280;61972;19.480;-99.240;2023-07-13T12:13:38;77906.16;;;28.65
73673;BMP280;61972;19.480;-99.240;2023-07-13T12:19:26;77898.50;;;28.60
73673;BMP280;61972;19.480;-99.240;2023-07-13T12:21:57;77904.72;;;28.59
73673;BMP280;61972;19.480;-99.240;2023-07-13T12:24:24;77910.94;;;28.57
73673;BMP280;61972;19.480;-99.240;2023-07-13T12:26:54;77908.72;;;28.55
73673;BMP280;61972;19.480;-99.240;2023-07-13T12:29:21;77918.13;;;28.54
73673;BMP280;61972;19.480;-99.240;2023-07-13T12:31:49;77914.78;;;28.51
73673;BMP280;61972;19.480;-99.240;2023-07-13T12:34:17;77924.75;;;28.51
73673;BMP280;61972;19.480;-99.240;2023-07-13T12:36:49;77936.22;;;28.49
73673;BMP280;61972;19.480;-99.240;2023-07-13T12:39:33;77926.66;;;28.48
73673;BMP280;61972;19.480;-99.240;2023-07-13T12:44:50;77929.00;;;28.42
73673;BMP280;61972;19.480;-99.240;2023-07-13T12:47:20;77921.09;;;28.42
73673;BMP280;61972;19.480;-99.240;2023-07-13T12:49:50;77925.09;;;28.39
73673;BMP280;61972;19.480;-99.240;2023-07-13T12:52:20;77923.97;;;28.38
73673;BMP280;61972;19.480;-99.240;2023-07-13T12:54:55;77928.16;;;28.37
73673;BMP280;61972;19.480;-99.240;2023-07-13T12:57:25;77928.56;;;28.35
73673;BMP280;61972;19.480;-99.240;2023-07-13T12:59:53;77931.59;;;28.33
73673;BMP280;61972;19.480;-99.240;2023-07-13T13:02:30;77933.50;;;28.30
73673;BMP280;61972;19.480;-99.240;2023-07-13T13:04:58;77935.00;;;28.29
73673;BMP280;61972;19.480;-99.240;2023-07-13T13:07:25;77928.09;;;28.27
73673;BMP280;61972;19.480;-99.240;2023-07-13T13:09:51;77925.47;;;28.27
73673;BMP280;61972;19.480;-99.240;2023-07-13T13:12:19;77924.34;;;28.26
73673;BMP280;61972;19.480;-99.240;2023-07-13T13:14:45;77934.28;;;28.25
73673;BMP280;61972;19.480;-99.240;2023-07-13T13:17:21;77937.91;;;28.24
73673;BMP280;61972;19.480;-99.240;2023-07-13T13:19:51;77945.78;;;28.24
73673;BMP280;61972;19.480;-99.240;2023-07-13T13:22:20;77942.59;;;28.23
73673;BMP280;61972;19.480;-99.240;2023-07-13T13:24:46;77949.91;;;28.23
73673;BMP280;61972;19.480;-99.240;2023-07-13T13:27:21;77950.31;;;28.21
73673;BMP280;61972;19.480;-99.240;2023-07-13T13:29:50;77952.41;;;28.20
73673;BMP280;61972;19.480;-99.240;2023-07-13T13:32:20;77951.84;;;28.20
73673;BMP280;61972;19.480;-99.240;2023-07-13T13:34:46;77943.94;;;28.20
73673;BMP280;61972;19.480;-99.240;2023-07-13T13:37:21;77947.56;;;28.18
73673;BMP280;61972;19.480;-99.240;2023-07-13T13:39:48;77945.84;;;28.17
73673;BMP280;61972;19.480;-99.240;2023-07-13T13:42:15;77939.50;;;28.16
73673;BMP280;61972;19.480;-99.240;2023-07-13T13:44:41;77947.38;;;28.16
73673;BMP280;61972;19.480;-99.240;2023-07-13T13:47:20;77938.97;;;28.15
73673;BMP280;61972;19.480;-99.240;2023-07-13T13:49:47;77938.97;;;28.15
73673;BMP280;61972;19.480;-99.240;2023-07-13T13:52:13;77941.03;;;28.15
73673;BMP280;61972;19.480;-99.240;2023-07-13T13:54:39;77939.91;;;28.14
73673;BMP280;61972;19.480;-99.240;2023-07-13T13:57:05;77950.41;;;28.14
73673;BMP280;61972;19.480;-99.240;2023-07-13T13:59:32;77944.03;;;28.13
73673;BMP280;61972;19.480;-99.240;2023-07-13T14:04:58;77960.22;;;28.11
73673;BMP280;61972;19.480;-99.240;2023-07-13T14:07:25;77951.75;;;28.10
73673;BMP280;61972;19.480;-99.240;2023-07-13T14:09:57;77953.84;;;28.10
73673;BMP280;61972;19.480;-99.240;2023-07-13T14:12:23;77950.09;;;28.08
73673;BMP280;61972;19.480;-99.240;2023-07-13T14:14:55;77951.63;;;28.07
73673;BMP280;61972;19.480;-99.240;2023-07-13T14:17:25;77953.84;;;28.10
73673;BMP280;61972;19.480;-99.240;2023-07-13T14:19:53;77955.94;;;28.09
73673;BMP280;61972;19.480;-99.240;2023-07-13T14:22:26;77958.00;;;28.08
73673;BMP280;61972;19.480;-99.240;2023-07-13T14:24:53;77951.06;;;28.07
73673;BMP280;61972;19.480;-99.240;2023-07-13T14:27:20;77950.50;;;28.06
73673;BMP280;61972;19.480;-99.240;2023-07-13T14:29:47;77954.25;;;28.07
73673;BMP280;61972;19.480;-99.240;2023-07-13T14:32:13;77953.13;;;28.06
73673;BMP280;61972;19.480;-99.240;2023-07-13T14:34:39;77951.63;;;28.07
73673;BMP280;61972;19.480;-99.240;2023-07-13T14:37:12;77956.31;;;28.07